tele2.hr alexa rank chart, tele2.hr alexa rank daily changes

tele2.hr alexa rank chart, tele2.hr alexa rank daily changes

tele2.hr
Actual rank:
96 184

RANK HISTORY

Date Rank Diff
2018/04/25 96 184 +8 983
2018/04/24 87 201 -31 886
2018/04/23 119 087 +23 212
2018/04/22 95 875 -37 987
2018/04/21 133 862 +42 052
2018/04/20 91 810 -6 669
2018/04/19 98 479 -22 786
2018/04/18 121 265 +16 037
2018/04/17 105 228 +10 077
2018/04/16 95 151 -58 889
2018/04/15 154 040 +24 777
2018/04/14 129 263 +19 188
2018/04/13 110 075 +24 012
2018/04/12 86 063 -44 895
2018/04/11 130 958 +3 712
2018/04/10 127 246 +51 472
2018/04/09 75 774 -89 602
2018/04/08 165 376 +63 871
2018/04/07 101 505 -96 120
2018/04/06 197 625 +107 432
2018/04/05 90 193 -82 121
2018/04/04 172 314 +17 201
2018/04/03 155 113 +46 242
2018/04/02 108 871 -72 713
2018/04/01 181 584 +9 604
2018/03/31 171 980 +51 478
2018/03/30 120 502 +2 336
2018/03/29 118 166 -40 766
2018/03/28 158 932 -2 377
2018/03/27 161 309 +45 267
2018/03/26 116 042 -708
2018/03/25 116 750 -4 114
2018/03/24 120 864 +12 334
2018/03/23 108 530 +16 781
2018/03/22 91 749 +19 811
2018/03/21 71 938 -6 276
2018/03/20 78 214 -19 987
2018/03/19 98 201 -20 614
2018/03/18 118 815 +20 256
2018/03/17 98 559 -8 730
2018/03/16 107 289 -55 352
2018/03/15 162 641 +40 728
2018/03/14 121 913 +7 666
2018/03/13 114 247 +29 687
2018/03/12 84 560 +9 401
2018/03/11 75 159 -16 885
2018/03/10 92 044 +18 310
2018/03/09 73 734 -27 104
2018/03/08 100 838 -8 500
2018/03/07 109 338 -17 818
2018/03/06 127 156 +34 872
2018/03/05 92 284 -4 803
2018/03/04 97 087 -29 267
2018/03/03 126 354 -20 506
2018/03/02 146 860 -34 234
2018/03/01 181 094 +80 449
2018/02/28 100 645 +10 008
2018/02/27 90 637 -42 308
2018/02/26 132 945 -11 457
2018/02/25 144 402 +37 422
2018/02/24 106 980

WIDGET FOR YOUR SITE

DOMAINS WITH THE NEAREST RANK

Domain Rank
furanet.com 96 179
speedpost.com.sg 96 180
articlemyriad.com 96 181
gazprom-football.com 96 182
copyleaks.com 96 183
tele2.hr 96 184
nbt.tj 96 185
vip.net 96 186
termingirls24.de 96 187
lonerwolf.com 96 188
fuzzconews.blogspot.com.br 96 189

DOMAINS WITH THE NEAREST RANK BY TLD .hr

Domain Rank
glas-slavonije.hr 88 959
lidl.hr 92 417
pcchip.hr 92 887
sancta-domenica.hr 93 922
story.hr 95 899
tele2.hr 96 184
glasistre.hr 96 338
erstecardclub.hr 96 859
atma.hr 97 195
porezna-uprava.hr 98 691
elipso.hr 99 489